Time;durP1;ratioP1;P1;durP2;ratioP2;P2;SDS_P1;SDS_P2;PMS_P1;PMS_P2;Temp;Humidity;BMP_temperature;BMP_pressure;BME280_temperature;BME280_humidity;BME280_pressure;Samples;Min_cycle;Max_cycle;Signal;HPM_P1;HPM_P2
2022/09/12 00:00:14;;;;;;;16.63;13.85;;;14.00;99.90;;;;;;4984343;28;20034;-84
2022/09/12 00:02:40;;;;;;;13.30;11.52;;;13.90;99.90;;;;;;4982848;28;20370;-84
2022/09/12 00:05:06;;;;;;;11.02;9.95;;;13.80;99.90;;;;;;4983032;28;21299;-84
2022/09/12 00:07:33;;;;;;;15.13;13.50;;;13.80;99.90;;;;;;5006949;28;20458;-83
2022/09/12 00:09:58;;;;;;;12.07;10.52;;;13.80;99.90;;;;;;4983820;28;20402;-83
2022/09/12 00:12:24;;;;;;;12.02;10.82;;;13.70;99.90;;;;;;4979052;28;20065;-83
2022/09/12 00:14:50;;;;;;;13.20;11.93;;;13.70;99.90;;;;;;4979542;28;20051;-83
2022/09/12 00:17:16;;;;;;;12.23;11.02;;;13.70;99.90;;;;;;4981511;28;20100;-83
2022/09/12 00:19:41;;;;;;;9.80;8.80;;;13.70;99.90;;;;;;4977348;28;20490;-84
2022/09/12 00:22:07;;;;;;;13.35;11.43;;;13.60;99.90;;;;;;5003946;28;20128;-83
2022/09/12 00:24:33;;;;;;;12.13;10.73;;;13.60;99.90;;;;;;4965954;28;20050;-83
2022/09/12 00:26:58;;;;;;;11.38;10.27;;;13.70;99.90;;;;;;4961207;28;20659;-83
2022/09/12 00:29:24;;;;;;;12.02;10.60;;;13.50;99.90;;;;;;4985988;28;20151;-83
2022/09/12 00:31:50;;;;;;;11.05;9.95;;;13.60;99.90;;;;;;4990847;28;20439;-84
2022/09/12 00:34:16;;;;;;;9.93;9.02;;;13.50;99.90;;;;;;4985778;28;20216;-84
2022/09/12 00:36:42;;;;;;;10.90;9.82;;;13.40;99.90;;;;;;5004025;28;20083;-84
2022/09/12 00:39:08;;;;;;;10.55;9.55;;;13.50;99.90;;;;;;4982090;28;20101;-84
2022/09/12 00:41:37;;;;;;;13.35;12.02;;;13.50;99.90;;;;;;4962983;28;20488;-84
2022/09/12 00:44:23;;;;;;;12.85;11.50;;;13.50;99.90;;;;;;4984299;28;20141;-84
2022/09/12 00:47:15;;;;;;;10.75;9.70;;;13.40;99.90;;;;;;4964288;28;20116;-84
2022/09/12 00:49:50;;;;;;;;;;;13.30;99.90;;;;;;5003804;28;20269;-84
2022/09/12 00:52:32;;;;;;;12.48;10.48;;;13.30;99.90;;;;;;4960404;28;19999;-84
2022/09/12 00:55:15;;;;;;;11.55;10.38;;;13.40;99.90;;;;;;4984006;28;20060;-84
2022/09/12 00:57:49;;;;;;;13.13;11.82;;;13.30;99.90;;;;;;4973969;28;20681;-83
2022/09/12 01:00:18;;;;;;;11.68;10.48;;;13.40;99.90;;;;;;4980198;28;20046;-83
2022/09/12 01:02:49;;;;;;;13.95;11.68;;;13.30;99.90;;;;;;5005916;28;20039;-84
2022/09/12 01:05:15;;;;;;;14.32;12.85;;;13.20;99.90;;;;;;4961957;28;20042;-83
2022/09/12 01:07:43;;;;;;;9.50;8.55;;;13.20;99.90;;;;;;4978966;28;20680;-83
2022/09/12 01:10:09;;;;;;;11.25;10.15;;;13.10;99.90;;;;;;4980130;28;20049;-83
2022/09/12 01:12:38;;;;;;;13.07;11.48;;;13.20;99.90;;;;;;4981659;28;20245;-83
2022/09/12 01:15:04;;;;;;;13.93;11.85;;;13.10;99.90;;;;;;4981857;28;20414;-83
2022/09/12 01:17:47;;;;;;;13.43;11.40;;;13.10;99.90;;;;;;4964762;28;20093;-83
2022/09/12 01:20:27;;;;;;;10.05;9.07;;;13.10;99.90;;;;;;4965377;28;20374;-83
2022/09/12 01:23:21;;;;;;;11.77;10.60;;;13.00;99.90;;;;;;4978491;28;20508;-83
2022/09/12 01:26:14;;;;;;;18.98;14.27;;;13.10;99.90;;;;;;4989617;28;20418;-83
2022/09/12 01:28:58;;;;;;;19.23;14.27;;;13.10;99.90;;;;;;5004107;28;20050;-83
2022/09/12 01:31:36;;;;;;;16.20;14.55;;;13.10;99.90;;;;;;5005433;28;20553;-83
2022/09/12 01:34:16;;;;;;;16.10;14.40;;;13.20;99.90;;;;;;4965487;28;20046;-83
2022/09/12 01:37:03;;;;;;;13.75;12.27;;;13.10;99.90;;;;;;4980272;28;20069;-83
2022/09/12 01:39:54;;;;;;;15.98;14.30;;;13.00;99.90;;;;;;4963365;28;20045;-83
2022/09/12 01:42:33;;;;;;;14.68;13.18;;;13.10;99.90;;;;;;4993910;28;20124;-83
2022/09/12 01:45:02;;;;;;;10.85;9.85;;;13.10;99.90;;;;;;4979916;28;20042;-83
2022/09/12 01:47:46;;;;;;;14.77;13.30;;;12.90;99.90;;;;;;4977303;28;20051;-83
2022/09/12 01:50:20;;;;;;;15.43;13.82;;;12.90;99.90;;;;;;4989281;28;20046;-83
2022/09/12 01:53:19;;;;;;;17.92;15.98;;;13.00;99.90;;;;;;4963226;28;20109;-83
2022/09/12 01:55:54;;;;;;;16.05;14.45;;;13.10;99.90;;;;;;4989980;28;20038;-83
2022/09/12 01:58:33;;;;;;;14.27;12.77;;;13.10;99.90;;;;;;4971105;28;20131;-83
2022/09/12 02:01:05;;;;;;;17.50;15.23;;;13.10;99.90;;;;;;4963892;28;20034;-83
2022/09/12 02:03:38;;;;;;;13.52;12.13;;;13.10;99.90;;;;;;4960117;28;20343;-83
2022/09/12 02:06:46;;;;;;;14.50;13.00;;;12.90;99.90;;;;;;4965828;28;20050;-83
2022/09/12 02:09:24;;;;;;;15.15;13.60;;;13.00;99.90;;;;;;4983828;28;20379;-83
2022/09/12 02:11:56;;;;;;;15.35;13.85;;;12.90;99.90;;;;;;4981415;28;20049;-83
2022/09/12 02:14:26;;;;;;;104.60;18.25;;;13.00;99.90;;;;;;4983977;28;20509;-83
2022/09/12 02:17:01;;;;;;;82.18;17.20;;;13.00;99.90;;;;;;4994623;28;20042;-84
2022/09/12 02:19:34;;;;;;;17.13;15.43;;;12.90;99.90;;;;;;4966555;28;20034;-83
2022/09/12 02:22:03;;;;;;;17.63;15.73;;;13.10;99.90;;;;;;4982552;28;20374;-83
2022/09/12 02:24:34;;;;;;;18.30;15.95;;;13.00;99.90;;;;;;4972411;28;20134;-83
2022/09/12 02:27:06;;;;;;;19.33;16.90;;;12.90;99.90;;;;;;4968693;28;20042;-83
2022/09/12 02:29:32;;;;;;;17.55;15.73;;;12.90;99.90;;;;;;4991452;28;20049;-83
2022/09/12 02:32:04;;;;;;;17.23;15.20;;;13.00;99.90;;;;;;4967732;28;20061;-83
2022/09/12 02:34:47;;;;;;;18.30;15.30;;;13.00;99.90;;;;;;4997395;28;20100;-83
2022/09/12 02:37:56;;;;;;;16.73;15.02;;;12.90;99.90;;;;;;4983143;28;20049;-84
2022/09/12 02:40:22;;;;;;;99.03;21.90;;;12.90;99.90;;;;;;4994926;28;20343;-83
2022/09/12 02:42:49;;;;;;;287.05;26.85;;;12.90;99.90;;;;;;4971087;28;20171;-83
2022/09/12 02:45:18;;;;;;;18.80;13.70;;;12.90;99.90;;;;;;4968743;28;20128;-84
2022/09/12 02:47:51;;;;;;;81.40;19.88;;;12.80;99.90;;;;;;4985714;28;20152;-83
2022/09/12 02:50:18;;;;;;;21.15;18.05;;;12.70;99.90;;;;;;4965780;28;20589;-83
2022/09/12 02:52:45;;;;;;;23.52;19.70;;;12.70;99.90;;;;;;4981228;28;20049;-83
2022/09/12 02:55:12;;;;;;;23.30;16.63;;;12.90;99.90;;;;;;4969087;28;20460;-84
2022/09/12 02:57:38;;;;;;;24.13;20.00;;;12.80;99.90;;;;;;4983223;28;20053;-83
2022/09/12 03:00:07;;;;;;;26.35;20.80;;;13.00;99.90;;;;;;4976844;28;20030;-83
2022/09/12 03:02:51;;;;;;;24.10;20.20;;;13.10;99.90;;;;;;4984673;28;20093;-83
2022/09/12 03:05:30;;;;;;;25.58;21.25;;;13.00;99.90;;;;;;5008167;28;20070;-83
2022/09/12 03:08:04;;;;;;;29.55;22.23;;;13.00;99.90;;;;;;4966741;28;20871;-83
2022/09/12 03:10:58;;;;;;;28.15;23.63;;;12.90;99.90;;;;;;4990339;28;20130;-83
2022/09/12 03:13:35;;;;;;;32.63;24.67;;;13.20;99.90;;;;;;4983628;28;20133;-83
2022/09/12 03:16:20;;;;;;;30.90;24.98;;;13.10;99.90;;;;;;5009612;28;22106;-83
2022/09/12 03:19:04;;;;;;;35.00;25.30;;;13.10;99.90;;;;;;4983773;28;20042;-83
2022/09/12 03:21:51;;;;;;;31.58;24.15;;;13.20;99.90;;;;;;4967760;28;20560;-84
2022/09/12 03:24:36;;;;;;;40.47;27.38;;;13.20;99.90;;;;;;4980339;28;20489;-83
2022/09/12 03:27:12;;;;;;;;;;;13.30;99.90;;;;;;4994257;28;20054;-83
2022/09/12 03:29:39;;;;;;;;;;;13.10;99.90;;;;;;4996169;28;19929;-84
2022/09/12 03:32:06;;;;;;;33.60;25.20;;;13.10;99.90;;;;;;4976024;28;20060;-83
2022/09/12 03:34:32;;;;;;;34.42;26.20;;;13.10;99.90;;;;;;4996749;28;20106;-84
2022/09/12 03:36:58;;;;;;;35.95;28.73;;;13.10;99.90;;;;;;4985795;28;20117;-83
2022/09/12 03:39:25;;;;;;;38.42;28.13;;;13.20;99.90;;;;;;4996589;28;20076;-83
2022/09/12 03:41:51;;;;;;;38.58;27.55;;;13.30;99.90;;;;;;4964634;28;20113;-84
2022/09/12 03:44:17;;;;;;;44.30;30.30;;;13.10;99.90;;;;;;4970875;28;20279;-84
2022/09/12 03:46:43;;;;;;;40.42;29.55;;;13.30;99.90;;;;;;4995275;28;20439;-84
2022/09/12 03:49:10;;;;;;;43.35;29.48;;;13.10;99.90;;;;;;4968074;28;20042;-84
2022/09/12 03:51:39;;;;;;;44.08;29.75;;;13.20;99.90;;;;;;4982478;28;20054;-83
2022/09/12 03:54:06;;;;;;;41.08;28.05;;;13.20;99.90;;;;;;4965789;28;20046;-83
2022/09/12 03:56:34;;;;;;;37.80;28.25;;;13.10;99.90;;;;;;4978792;28;20130;-84
2022/09/12 03:59:05;;;;;;;41.08;30.27;;;13.30;99.90;;;;;;4978729;28;20101;-83
2022/09/12 04:01:31;;;;;;;39.53;28.63;;;13.30;99.90;;;;;;4968900;28;20062;-83
2022/09/12 04:03:57;;;;;;;40.63;28.67;;;13.20;99.90;;;;;;4965815;28;20115;-83
2022/09/12 04:06:23;;;;;;;40.08;29.63;;;13.30;99.90;;;;;;4980667;28;20050;-83
2022/09/12 04:08:53;;;;;;;39.05;27.45;;;13.30;99.90;;;;;;4979079;28;20038;-83
2022/09/12 04:11:20;;;;;;;43.97;30.13;;;13.10;99.90;;;;;;5008690;28;20466;-83
2022/09/12 04:13:47;;;;;;;40.45;28.80;;;13.10;99.90;;;;;;4985047;28;20286;-84
2022/09/12 04:16:15;;;;;;;45.42;31.25;;;13.10;99.90;;;;;;4984293;28;20042;-84
2022/09/12 04:18:40;;;;;;;36.20;24.60;;;13.20;99.90;;;;;;5007848;28;20046;-84
2022/09/12 04:21:15;;;;;;;45.13;31.13;;;13.20;99.90;;;;;;4978284;28;20042;-83
2022/09/12 04:23:41;;;;;;;46.25;32.47;;;13.10;99.90;;;;;;4992360;28;20067;-83
2022/09/12 04:26:07;;;;;;;36.97;27.13;;;13.20;99.90;;;;;;4988233;28;21740;-83
2022/09/12 04:28:35;;;;;;;38.17;28.08;;;13.20;99.90;;;;;;4982145;28;20125;-83
2022/09/12 04:31:06;;;;;;;45.35;29.88;;;13.20;99.90;;;;;;4980324;28;20045;-84
2022/09/12 04:33:35;;;;;;;43.97;28.45;;;13.30;99.90;;;;;;5006566;28;20601;-84
2022/09/12 04:36:10;;;;;;;42.45;28.10;;;13.20;99.90;;;;;;4974649;28;20101;-83
2022/09/12 04:38:36;;;;;;;42.83;29.90;;;13.30;99.90;;;;;;4992113;28;20131;-83
2022/09/12 04:41:13;;;;;;;44.92;30.08;;;13.20;99.90;;;;;;4991845;28;20049;-84
2022/09/12 04:43:39;;;;;;;39.75;27.33;;;13.20;99.90;;;;;;5007837;28;20050;-84
2022/09/12 04:46:06;;;;;;;33.28;24.33;;;13.30;99.90;;;;;;4979318;28;20168;-84
2022/09/12 04:48:32;;;;;;;36.45;25.67;;;13.20;99.90;;;;;;4994635;28;20046;-84
2022/09/12 04:51:14;;;;;;;38.60;27.60;;;13.20;99.90;;;;;;4988990;28;20525;-84
2022/09/12 04:53:41;;;;;;;35.33;23.10;;;13.30;99.90;;;;;;4975596;28;20407;-84
2022/09/12 04:56:09;;;;;;;39.40;26.20;;;13.20;99.90;;;;;;5007182;28;20047;-83
2022/09/12 04:58:36;;;;;;;36.90;24.40;;;13.20;99.90;;;;;;4967470;28;20416;-83
2022/09/12 05:01:06;;;;;;;36.25;25.88;;;13.30;99.90;;;;;;4988947;28;20042;-83
2022/09/12 05:03:37;;;;;;;37.25;24.95;;;13.50;99.90;;;;;;4977895;28;20044;-84
2022/09/12 05:06:05;;;;;;;36.38;24.80;;;13.50;99.90;;;;;;4960527;28;20126;-84
2022/09/12 05:08:31;;;;;;;39.88;26.10;;;13.50;99.90;;;;;;5008807;28;20351;-83
2022/09/12 05:11:05;;;;;;;36.53;25.77;;;13.60;99.90;;;;;;4985285;28;20034;-83
2022/09/12 05:13:32;;;;;;;37.80;26.02;;;13.60;99.90;;;;;;4978776;28;20046;-84
2022/09/12 05:15:59;;;;;;;42.83;27.13;;;13.60;99.90;;;;;;4982690;28;20067;-83
2022/09/12 05:18:25;;;;;;;36.85;25.88;;;13.70;99.90;;;;;;5003860;28;20089;-83
2022/09/12 05:20:54;;;;;;;39.25;26.58;;;13.80;99.90;;;;;;4982331;28;20049;-83
2022/09/12 05:23:20;;;;;;;41.95;27.30;;;13.90;99.90;;;;;;4974927;28;20132;-84
2022/09/12 05:25:55;;;;;;;40.63;27.30;;;13.90;99.90;;;;;;4987201;28;20055;-83
2022/09/12 05:28:23;;;;;;;42.35;28.70;;;14.10;99.90;;;;;;4983132;28;20046;-84
2022/09/12 05:31:01;;;;;;;40.03;27.67;;;14.00;99.90;;;;;;4981544;28;20349;-83
2022/09/12 05:33:30;;;;;;;42.78;27.73;;;14.10;99.90;;;;;;4988291;28;20068;-84
2022/09/12 05:35:56;;;;;;;41.72;28.98;;;14.30;99.90;;;;;;5005510;28;20042;-83
2022/09/12 05:38:23;;;;;;;40.83;26.95;;;14.10;99.90;;;;;;4953993;28;20038;-84
2022/09/12 05:40:50;;;;;;;41.00;26.55;;;14.30;99.90;;;;;;4993539;28;20046;-83
2022/09/12 05:43:16;;;;;;;42.22;27.20;;;14.40;99.90;;;;;;4981040;28;20042;-83
2022/09/12 05:45:44;;;;;;;40.22;26.90;;;14.50;99.90;;;;;;4987135;28;20037;-83
2022/09/12 05:48:10;;;;;;;40.30;27.90;;;14.50;99.90;;;;;;4978933;28;20038;-83
2022/09/12 05:50:35;;;;;;;38.13;26.27;;;14.40;99.90;;;;;;4973414;28;20482;-84
2022/09/12 05:53:01;;;;;;;39.78;26.95;;;14.50;99.90;;;;;;4968056;28;20129;-83
2022/09/12 05:55:28;;;;;;;41.00;27.40;;;14.60;99.90;;;;;;4977270;28;20065;-83
2022/09/12 05:57:53;;;;;;;40.60;27.15;;;14.50;99.90;;;;;;4972987;28;20097;-84
2022/09/12 06:00:19;;;;;;;42.45;27.70;;;14.70;99.90;;;;;;4991703;28;20077;-83
2022/09/12 06:02:52;;;;;;;37.53;26.13;;;14.50;99.90;;;;;;4964834;28;20038;-84
2022/09/12 06:05:20;;;;;;;41.40;26.52;;;14.60;99.90;;;;;;4992559;28;20065;-83
2022/09/12 06:07:47;;;;;;;39.53;26.52;;;14.70;99.90;;;;;;4981552;28;20197;-83
2022/09/12 06:10:13;;;;;;;40.72;27.15;;;14.80;99.90;;;;;;4950971;28;20078;-84
2022/09/12 06:12:38;;;;;;;42.55;28.15;;;14.80;99.90;;;;;;4981996;28;20142;-84
2022/09/12 06:15:05;;;;;;;41.75;26.35;;;14.90;99.90;;;;;;4978399;28;20322;-83
2022/09/12 06:17:31;;;;;;;41.20;27.15;;;14.90;99.90;;;;;;4951692;28;20042;-83
2022/09/12 06:19:56;;;;;;;42.47;28.73;;;14.80;99.90;;;;;;4978130;28;20412;-83
2022/09/12 06:22:22;;;;;;;40.33;27.67;;;14.80;99.90;;;;;;4981637;28;20294;-83
2022/09/12 06:24:48;;;;;;;44.38;29.23;;;15.00;99.90;;;;;;4986127;28;20137;-83
2022/09/12 06:27:14;;;;;;;46.88;29.30;;;15.00;99.90;;;;;;4979439;28;20375;-84
2022/09/12 06:29:39;;;;;;;47.05;29.50;;;15.00;99.90;;;;;;4974665;28;20053;-84
2022/09/12 06:32:06;;;;;;;45.40;29.60;;;15.00;99.90;;;;;;4993586;28;20034;-83
2022/09/12 06:34:32;;;;;;;45.78;29.05;;;15.10;99.90;;;;;;4972762;28;20046;-83
2022/09/12 06:36:58;;;;;;;44.83;29.33;;;15.20;99.90;;;;;;4990699;28;20236;-83
2022/09/12 06:39:23;;;;;;;43.70;28.30;;;15.20;99.90;;;;;;4967244;28;20072;-83
2022/09/12 06:41:51;;;;;;;47.47;31.27;;;15.40;99.90;;;;;;4978964;28;20051;-83
2022/09/12 06:44:20;;;;;;;44.90;31.05;;;15.50;99.90;;;;;;4986487;28;20378;-83
2022/09/12 06:46:46;;;;;;;44.42;29.63;;;15.20;99.90;;;;;;4970043;28;20037;-83
2022/09/12 06:49:13;;;;;;;43.92;29.90;;;15.40;99.90;;;;;;4977134;28;20379;-83
2022/09/12 06:51:40;;;;;;;41.55;27.95;;;15.30;99.90;;;;;;5007047;28;20050;-83
2022/09/12 06:54:06;;;;;;;51.35;30.23;;;15.60;99.90;;;;;;4967420;28;20081;-83
2022/09/12 06:56:32;;;;;;;46.03;29.85;;;15.40;99.90;;;;;;4985063;28;20139;-83
2022/09/12 06:58:58;;;;;;;43.63;28.83;;;15.50;99.90;;;;;;4984854;28;20034;-83
2022/09/12 07:01:29;;;;;;;44.85;29.42;;;15.60;99.90;;;;;;5012322;28;20038;-83
2022/09/12 07:04:03;;;;;;;45.83;30.25;;;15.70;99.90;;;;;;4975024;28;20286;-83
2022/09/12 07:06:37;;;;;;;43.72;29.50;;;15.60;99.90;;;;;;4974301;28;20128;-84
2022/09/12 07:09:06;;;;;;;48.83;31.30;;;15.70;99.90;;;;;;4968994;28;20194;-83
2022/09/12 07:11:35;;;;;;;48.35;30.92;;;15.80;99.90;;;;;;4989081;28;20034;-83
2022/09/12 07:14:03;;;;;;;47.65;30.05;;;15.70;99.90;;;;;;4975488;28;20381;-84
2022/09/12 07:16:34;;;;;;;49.25;31.27;;;15.90;99.90;;;;;;4968281;28;20055;-83
2022/09/12 07:19:02;;;;;;;48.20;30.65;;;15.90;99.90;;;;;;5002067;28;20046;-83
2022/09/12 07:21:28;;;;;;;45.65;30.42;;;16.20;99.90;;;;;;4967491;28;20609;-83
2022/09/12 07:23:56;;;;;;;47.25;31.27;;;16.10;99.90;;;;;;4984542;28;20117;-83
2022/09/12 07:26:22;;;;;;;47.83;31.27;;;16.00;99.90;;;;;;4966253;28;20085;-83
2022/09/12 07:28:53;;;;;;;45.08;29.15;;;16.40;99.90;;;;;;4972282;28;20547;-83
2022/09/12 07:31:21;;;;;;;47.83;30.45;;;16.40;99.90;;;;;;4986491;28;20045;-84
2022/09/12 07:33:49;;;;;;;45.28;32.22;;;16.40;99.90;;;;;;4995122;28;20058;-83
2022/09/12 07:36:17;;;;;;;49.58;32.30;;;16.40;99.90;;;;;;4982182;28;20054;-83
2022/09/12 07:38:47;;;;;;;49.45;30.38;;;16.60;99.90;;;;;;4983799;28;20245;-83
2022/09/12 07:41:25;;;;;;;46.67;32.08;;;16.60;99.90;;;;;;4979093;28;20038;-84
2022/09/12 07:43:51;;;;;;;;;;;16.50;99.90;;;;;;4973419;28;20492;-84
2022/09/12 07:46:17;;;;;;;47.67;30.02;;;16.70;99.90;;;;;;4986423;28;19921;-83
2022/09/12 07:48:44;;;;;;;47.65;31.25;;;16.80;99.90;;;;;;4978845;28;20429;-83
2022/09/12 07:51:11;;;;;;;44.13;29.95;;;16.80;99.90;;;;;;4965347;28;20043;-83
2022/09/12 07:53:43;;;;;;;46.67;31.02;;;16.80;99.90;;;;;;4963429;28;20053;-83
2022/09/12 07:56:10;;;;;;;44.63;29.35;;;16.90;99.90;;;;;;4973169;28;20569;-83
2022/09/12 07:58:36;;;;;;;41.63;28.30;;;16.80;99.90;;;;;;4990797;28;20461;-84
2022/09/12 08:01:02;;;;;;;40.38;27.58;;;16.90;99.90;;;;;;4973751;28;20046;-83
2022/09/12 08:03:28;;;;;;;41.85;28.02;;;16.90;99.90;;;;;;4974825;28;20042;-83
2022/09/12 08:05:54;;;;;;;38.88;27.30;;;17.10;99.90;;;;;;4973984;28;20230;-83
2022/09/12 08:08:22;;;;;;;42.03;26.73;;;17.10;99.90;;;;;;4954503;28;20047;-83
2022/09/12 08:10:48;;;;;;;40.80;27.52;;;17.20;99.90;;;;;;4966169;28;20035;-83
2022/09/12 08:13:14;;;;;;;40.75;26.90;;;17.50;99.90;;;;;;4972616;28;20049;-83
2022/09/12 08:15:39;;;;;;;40.33;26.60;;;17.60;99.90;;;;;;4989416;28;20213;-83
2022/09/12 08:18:07;;;;;;;37.53;27.67;;;17.60;99.90;;;;;;4960579;28;20525;-83
2022/09/12 08:20:33;;;;;;;41.47;28.67;;;17.80;99.90;;;;;;4964414;28;20046;-83
2022/09/12 08:22:59;;;;;;;37.05;26.58;;;17.80;99.90;;;;;;4964001;28;20082;-83
2022/09/12 08:25:27;;;;;;;37.00;26.70;;;17.80;99.90;;;;;;4982858;28;20058;-83
2022/09/12 08:27:55;;;;;;;37.33;25.52;;;17.80;99.90;;;;;;4960719;28;20034;-83
2022/09/12 08:30:21;;;;;;;35.00;25.15;;;18.00;99.90;;;;;;4991257;28;20034;-83
2022/09/12 08:32:47;;;;;;;33.33;24.67;;;18.00;99.90;;;;;;4983470;28;20038;-83
2022/09/12 08:35:13;;;;;;;31.30;22.77;;;18.00;99.90;;;;;;4977456;28;20041;-83
2022/09/12 08:37:39;;;;;;;30.02;22.25;;;18.00;99.90;;;;;;4980951;28;20213;-83
2022/09/12 08:40:07;;;;;;;31.17;22.13;;;18.00;99.90;;;;;;4982640;28;20041;-84
2022/09/12 08:42:57;;;;;;;30.27;20.95;;;18.30;99.90;;;;;;4974390;28;20672;-83
2022/09/12 08:45:37;;;;;;;32.63;20.52;;;18.40;99.90;;;;;;5000749;28;20038;-84
2022/09/12 08:48:05;;;;;;;28.75;21.65;;;18.70;99.90;;;;;;4989691;28;20145;-84
2022/09/12 08:50:33;;;;;;;35.83;21.95;;;18.50;99.90;;;;;;4983397;28;20054;-84
2022/09/12 08:53:08;;;;;;;29.20;21.30;;;18.60;99.90;;;;;;4992294;28;20487;-83
2022/09/12 08:55:36;;;;;;;33.25;21.25;;;18.70;99.90;;;;;;4963069;28;20042;-83
2022/09/12 08:58:16;;;;;;;29.63;21.90;;;18.80;99.90;;;;;;4975034;28;20497;-84
2022/09/12 09:01:07;;;;;;;32.13;21.88;;;18.70;46.50;;;;;;4973632;28;20078;-83
2022/09/12 09:03:38;;;;;;;27.65;20.48;;;19.00;99.90;;;;;;4975423;28;20050;-81
2022/09/12 09:06:41;;;;;;;31.50;22.23;;;19.00;99.90;;;;;;4985609;28;20050;-84
2022/09/12 09:09:35;;;;;;;30.15;21.90;;;19.10;95.90;;;;;;4962886;28;20331;-83
2022/09/12 09:12:19;;;;;;;32.10;22.55;;;19.20;1.00;;;;;;4986471;28;20085;-84
2022/09/12 09:15:02;;;;;;;28.75;22.23;;;19.20;99.90;;;;;;4988523;28;20037;-83
2022/09/12 09:17:33;;;;;;;28.77;20.85;;;19.50;53.20;;;;;;4974287;28;20065;-84
2022/09/12 09:20:16;;;;;;;28.55;20.33;;;19.60;1.00;;;;;;4962062;28;20437;-84
2022/09/12 09:22:49;;;;;;;30.60;22.33;;;19.90;1.00;;;;;;4980348;28;20046;-84
2022/09/12 09:25:23;;;;;;;32.78;22.13;;;20.00;99.90;;;;;;4994657;28;20053;-84
2022/09/12 09:28:05;;;;;;;34.10;24.48;;;19.90;1.00;;;;;;4957622;28;20426;-84
2022/09/12 09:30:34;;;;;;;34.35;24.02;;;19.80;7.50;;;;;;4971375;28;20057;-84
2022/09/12 09:33:03;;;;;;;32.20;22.10;;;19.90;99.90;;;;;;4981700;28;20148;-84
2022/09/12 09:35:37;;;;;;;31.67;22.23;;;20.10;99.90;;;;;;4972919;28;20073;-84
2022/09/12 09:38:15;;;;;;;35.22;22.80;;;20.20;99.90;;;;;;4976938;28;20093;-84
2022/09/12 09:40:47;;;;;;;37.17;24.80;;;20.30;31.00;;;;;;4992937;28;20521;-84
2022/09/12 09:43:27;;;;;;;35.95;24.25;;;20.30;99.90;;;;;;4974799;28;20046;-84
2022/09/12 09:45:55;;;;;;;37.40;25.13;;;20.20;99.90;;;;;;4965285;28;20054;-84
2022/09/12 09:48:26;;;;;;;37.72;26.38;;;20.40;99.90;;;;;;4969572;28;20043;-84
2022/09/12 09:50:52;;;;;;;39.20;28.00;;;20.30;60.90;;;;;;4982721;28;20122;-84
2022/09/12 09:53:48;;;;;;;41.33;27.00;;;20.20;99.90;;;;;;4982064;28;20133;-83
2022/09/12 09:56:35;;;;;;;38.72;26.17;;;20.50;99.90;;;;;;4979427;28;20160;-84
2022/09/12 09:59:32;;;;;;;39.60;26.65;;;20.80;24.50;;;;;;4969636;28;20037;-83
2022/09/12 10:02:22;;;;;;;38.58;26.23;;;21.00;19.00;;;;;;4956180;28;20409;-84
2022/09/12 10:04:57;;;;;;;41.55;26.88;;;21.00;99.90;;;;;;4982277;28;20034;-83
2022/09/12 10:07:25;;;;;;;37.20;25.02;;;21.10;1.00;;;;;;4960723;28;20101;-84
2022/09/12 10:10:05;;;;;;;40.03;25.65;;;21.30;99.90;;;;;;5008321;28;20045;-84
2022/09/12 10:12:30;;;;;;;38.92;26.30;;;21.10;3.30;;;;;;4968684;28;20057;-84
2022/09/12 10:14:57;;;;;;;40.25;26.23;;;21.40;1.00;;;;;;4984290;28;20429;-84
2022/09/12 10:17:38;;;;;;;41.03;25.70;;;21.50;99.90;;;;;;5007687;28;20054;-84
2022/09/12 10:20:25;;;;;;;39.33;25.83;;;21.70;99.90;;;;;;4982339;28;20077;-84
2022/09/12 10:22:50;;;;;;;35.90;22.95;;;22.00;99.90;;;;;;4982270;28;20104;-83
2022/09/12 10:25:18;;;;;;;34.80;23.40;;;21.90;1.00;;;;;;4986701;28;20054;-85
2022/09/12 10:27:59;;;;;;;40.38;22.55;;;21.90;99.90;;;;;;4973151;28;20092;-84
2022/09/12 10:30:27;;;;;;;33.03;22.80;;;22.00;1.00;;;;;;4964699;28;20057;-84
2022/09/12 10:32:58;;;;;;;36.38;23.30;;;22.20;99.90;;;;;;4984025;28;20054;-83
2022/09/12 10:35:29;;;;;;;36.60;23.38;;;22.10;99.90;;;;;;5008431;28;20038;-84
2022/09/12 10:38:21;;;;;;;30.58;21.70;;;21.80;1.00;;;;;;4980066;28;20055;-84
2022/09/12 10:41:02;;;;;;;30.55;20.63;;;21.90;99.90;;;;;;4986590;28;20049;-84
2022/09/12 10:43:36;;;;;;;35.60;22.17;;;22.10;99.90;;;;;;4999085;28;20571;-84
2022/09/12 10:46:17;;;;;;;34.15;21.75;;;22.20;99.90;;;;;;4984195;28;20117;-84
2022/09/12 10:48:51;;;;;;;34.13;21.67;;;22.50;99.90;;;;;;5011043;28;20152;-84
2022/09/12 10:51:23;;;;;;;30.27;19.83;;;22.50;99.90;;;;;;4982764;28;20050;-84
2022/09/12 10:53:50;;;;;;;29.10;19.17;;;22.50;99.90;;;;;;5014164;28;20095;-84
2022/09/12 10:56:21;;;;;;;27.52;16.52;;;22.70;99.90;;;;;;4973474;28;20430;-84
2022/09/12 10:58:59;;;;;;;27.48;18.80;;;22.50;99.90;;;;;;5009241;28;20034;-84
2022/09/12 11:01:46;;;;;;;30.17;18.63;;;22.60;1.00;;;;;;4985848;28;20038;-84
2022/09/12 11:04:40;;;;;;;26.85;18.23;;;23.00;1.00;;;;;;4980486;28;20053;-84
2022/09/12 11:07:31;;;;;;;21.98;16.45;;;23.00;1.00;;;;;;5007644;28;20085;-85
2022/09/12 11:10:02;;;;;;;22.95;16.52;;;23.00;99.90;;;;;;4967764;28;20112;-85
2022/09/12 11:12:52;;;;;;;21.38;15.48;;;23.00;99.90;;;;;;4961150;28;20128;-85
2022/09/12 11:15:38;;;;;;;25.48;17.08;;;23.20;99.90;;;;;;4968721;28;20089;-85
2022/09/12 11:18:13;;;;;;;19.67;15.10;;;23.10;99.90;;;;;;4990224;28;20053;-84
2022/09/12 11:21:09;;;;;;;19.83;14.82;;;23.40;99.90;;;;;;4965287;28;20558;-84
2022/09/12 11:24:01;;;;;;;18.48;14.50;;;23.50;99.90;;;;;;4981105;28;20092;-84
2022/09/12 11:26:38;;;;;;;23.25;14.60;;;23.60;99.90;;;;;;4966263;28;20424;-84
2022/09/12 11:29:16;;;;;;;18.83;12.70;;;23.80;1.00;;;;;;4973379;28;20128;-84
2022/09/12 11:31:58;;;;;;;17.23;11.77;;;23.80;1.00;;;;;;4991060;28;20081;-84
2022/09/12 11:34:52;;;;;;;16.63;11.13;;;23.90;99.90;;;;;;4969316;28;20060;-84
2022/09/12 11:37:54;;;;;;;13.60;10.93;;;24.20;99.90;;;;;;4963298;28;20094;-84
2022/09/12 11:40:44;;;;;;;17.42;12.20;;;24.30;99.90;;;;;;5010266;28;20050;-84
2022/09/12 11:43:35;;;;;;;16.83;10.35;;;24.50;99.90;;;;;;4980308;28;20128;-84
2022/09/12 11:46:37;;;;;;;12.90;9.98;;;24.10;99.90;;;;;;5007612;28;20050;-84
2022/09/12 11:49:27;;;;;;;13.27;10.32;;;24.30;99.90;;;;;;4963871;28;20050;-84
2022/09/12 11:51:59;;;;;;;14.32;10.50;;;24.50;99.90;;;;;;4988077;28;20597;-83
2022/09/12 11:54:44;;;;;;;15.65;10.43;;;24.90;99.90;;;;;;4990912;28;20058;-84
2022/09/12 11:57:15;;;;;;;14.15;10.02;;;24.90;99.90;;;;;;5010611;28;20054;-84
2022/09/12 12:00:01;;;;;;;13.52;10.18;;;25.10;99.90;;;;;;4969992;28;20399;-84
2022/09/12 12:02:37;;;;;;;13.18;9.80;;;24.90;99.90;;;;;;4965715;28;20043;-84
2022/09/12 12:05:21;;;;;;;9.88;7.65;;;24.80;84.50;;;;;;4973283;28;20047;-84
2022/09/12 12:07:56;;;;;;;12.05;9.15;;;24.80;99.90;;;;;;4986211;28;20066;-85
2022/09/12 12:10:31;;;;;;;13.43;9.23;;;24.80;99.90;;;;;;4987318;28;20046;-83
2022/09/12 12:12:59;;;;;;;13.13;8.90;;;24.80;1.00;;;;;;4998687;28;20050;-84
2022/09/12 12:15:26;;;;;;;11.98;8.77;;;25.20;1.00;;;;;;4985916;28;20562;-85
2022/09/12 12:18:04;;;;;;;14.07;9.60;;;25.60;96.00;;;;;;5001390;28;20089;-84
2022/09/12 12:20:30;;;;;;;13.13;9.50;;;25.10;39.50;;;;;;5017233;28;20457;-84
2022/09/12 12:22:56;;;;;;;10.60;8.35;;;25.40;1.00;;;;;;4992796;28;20050;-84
2022/09/12 12:25:39;;;;;;;13.48;9.82;;;25.70;48.30;;;;;;4973388;28;20049;-84
2022/09/12 12:28:08;;;;;;;16.42;10.70;;;25.80;1.00;;;;;;5013515;28;20137;-84
2022/09/12 12:30:52;;;;;;;15.18;9.85;;;25.80;1.00;;;;;;5004330;28;20174;-84
2022/09/12 12:33:20;;;;;;;15.80;11.30;;;26.00;13.50;;;;;;5010111;28;20061;-84
2022/09/12 12:35:58;;;;;;;13.75;10.23;;;25.70;1.00;;;;;;4982046;28;20200;-85
2022/09/12 12:38:38;;;;;;;12.52;10.55;;;25.40;1.00;;;;;;4982457;28;20038;-86
2022/09/12 12:41:16;;;;;;;15.43;10.25;;;25.90;1.00;;;;;;4998210;28;20043;-87
2022/09/12 12:43:47;;;;;;;12.25;9.93;;;25.90;1.00;;;;;;5010188;28;20042;-85
2022/09/12 12:46:18;;;;;;;13.18;9.45;;;26.20;1.00;;;;;;5009917;28;20454;-86
2022/09/12 12:49:06;;;;;;;12.70;8.35;;;26.40;1.00;;;;;;4977087;28;20117;-86
2022/09/12 12:51:54;;;;;;;9.88;7.82;;;26.00;99.90;;;;;;4973123;28;20042;-87
2022/09/12 12:55:03;;;;;;;7.20;6.18;;;26.50;1.00;;;;;;4979278;28;20054;-86
2022/09/12 12:57:47;;;;;;;11.45;5.07;;;26.80;99.90;;;;;;4938198;28;20554;-85
2022/09/12 13:00:25;;;;;;;8.10;5.05;;;26.40;99.90;;;;;;4928354;28;20098;-86